createdAt,value
2018-12-21T00:02:05.778Z,3.20
2018-12-21T00:04:33.367Z,2.90
2018-12-21T00:07:00.991Z,2.60
2018-12-21T00:09:28.795Z,2.93
2018-12-21T00:11:56.734Z,3.27
2018-12-21T00:14:24.422Z,3.20
2018-12-21T00:16:51.957Z,2.90
2018-12-21T00:19:19.560Z,2.83
2018-12-21T00:21:47.131Z,2.50
2018-12-21T00:24:15.302Z,4.37
2018-12-21T00:26:43.198Z,2.60
2018-12-21T00:29:11.162Z,3.07
2018-12-21T00:31:44.202Z,2.87
2018-12-21T00:34:17.542Z,2.10
2018-12-21T00:36:50.815Z,2.50
2018-12-21T00:39:24.038Z,2.50
2018-12-21T00:41:51.378Z,2.80
2018-12-21T00:44:27.430Z,2.10
2018-12-21T00:46:56.950Z,3.03
2018-12-21T00:49:26.558Z,2.43
2018-12-21T00:51:54.089Z,2.80
2018-12-21T00:54:21.646Z,2.63
2018-12-21T00:56:49.202Z,2.60
2018-12-21T00:59:16.997Z,2.37
2018-12-21T01:01:48.069Z,2.23
2018-12-21T01:04:15.672Z,3.30
2018-12-21T01:06:43.282Z,2.93
2018-12-21T01:09:14.038Z,3.10
2018-12-21T01:11:41.634Z,2.70
2018-12-21T01:14:09.276Z,2.40
2018-12-21T01:16:36.915Z,2.57
2018-12-21T01:19:04.858Z,3.03
2018-12-21T01:21:38.708Z,2.10
2018-12-21T01:24:02.723Z,2.70
2018-12-21T01:26:30.651Z,2.63
2018-12-21T01:29:06.065Z,2.10
2018-12-21T01:31:33.993Z,2.43
2018-12-21T01:34:08.855Z,2.90
2018-12-21T01:36:36.577Z,2.60
2018-12-21T01:39:14.554Z,2.43
2018-12-21T01:42:08.209Z,2.80
2018-12-21T01:44:43.720Z,2.40
2018-12-21T01:47:11.562Z,2.30
2018-12-21T01:49:47.253Z,2.23
2018-12-21T01:52:15.006Z,2.60
2018-12-21T01:54:50.698Z,2.27
2018-12-21T01:57:26.562Z,3.27
2018-12-21T01:59:54.162Z,2.90
2018-12-21T02:02:29.598Z,2.83
2018-12-21T02:05:05.049Z,2.47
2018-12-21T02:07:32.641Z,2.90
2018-12-21T02:10:00.166Z,2.53
2018-12-21T02:12:35.201Z,2.43
2018-12-21T02:15:06.370Z,2.27
2018-12-21T02:17:34.174Z,2.43
2018-12-21T02:20:02.094Z,2.40
2018-12-21T02:22:30.778Z,2.70
2018-12-21T02:24:58.656Z,2.30
2018-12-21T02:27:26.279Z,2.40
2018-12-21T02:29:53.878Z,2.50
2018-12-21T02:32:21.500Z,2.10
2018-12-21T02:34:49.198Z,2.20
2018-12-21T02:37:17.211Z,2.53
2018-12-21T02:39:44.806Z,3.90
2018-12-21T02:42:12.400Z,2.10
2018-12-21T02:44:39.990Z,2.27
2018-12-21T02:47:07.606Z,2.20
2018-12-21T02:49:35.474Z,2.63
2018-12-21T02:52:05.688Z,3.27
2018-12-21T02:54:33.050Z,3.63
2018-12-21T02:57:00.943Z,3.20
2018-12-21T02:59:28.554Z,3.40
2018-12-21T03:01:56.162Z,3.70
2018-12-21T03:04:23.745Z,3.80
2018-12-21T03:06:51.524Z,5.13
2018-12-21T03:09:19.461Z,4.10
2018-12-21T03:11:47.037Z,4.87
2018-12-21T03:14:14.616Z,4.67
2018-12-21T03:16:42.168Z,4.47
2018-12-21T03:19:17.742Z,4.00
2018-12-21T03:21:56.068Z,3.80
2018-12-21T03:24:23.864Z,4.30
2018-12-21T03:26:51.850Z,4.10
2018-12-21T03:29:23.202Z,3.90
2018-12-21T03:31:58.410Z,3.83
2018-12-21T03:34:25.992Z,4.43
2018-12-21T03:37:01.601Z,3.90
2018-12-21T03:39:29.312Z,4.30
2018-12-21T03:42:24.726Z,4.23
2018-12-21T03:45:00.241Z,3.93
2018-12-21T03:47:35.201Z,4.60
2018-12-21T03:50:24.386Z,5.00
2018-12-21T03:52:52.137Z,4.40
2018-12-21T03:55:19.714Z,4.17
2018-12-21T03:57:55.168Z,4.30
2018-12-21T04:00:22.727Z,3.97
2018-12-21T04:02:50.333Z,4.20
2018-12-21T04:05:18.137Z,3.77
2018-12-21T04:07:45.923Z,3.60
2018-12-21T04:10:13.582Z,3.63
2018-12-21T04:12:48.966Z,3.53
2018-12-21T04:15:23.670Z,3.13
2018-12-21T04:17:59.046Z,3.40
2018-12-21T04:20:34.645Z,3.33
2018-12-21T04:23:02.206Z,3.50
2018-12-21T04:25:29.751Z,4.23
2018-12-21T04:27:57.590Z,4.07
2018-12-21T04:30:25.351Z,3.60
2018-12-21T04:32:53.291Z,3.70
2018-12-21T04:35:20.839Z,3.30
2018-12-21T04:38:23.329Z,3.30
2018-12-21T04:40:54.559Z,3.20
2018-12-21T04:43:26.146Z,3.17
2018-12-21T04:46:01.168Z,2.90
2018-12-21T04:49:10.467Z,2.93
2018-12-21T04:51:45.862Z,2.73
2018-12-21T04:54:20.982Z,2.50
2018-12-21T04:56:55.729Z,2.53
2018-12-21T04:59:23.272Z,2.53
2018-12-21T05:01:59.072Z,2.20
2018-12-21T05:04:26.618Z,2.47
2018-12-21T05:06:54.194Z,2.33
2018-12-21T05:09:29.333Z,2.40
2018-12-21T05:11:56.863Z,2.20
2018-12-21T05:14:24.619Z,1.73
2018-12-21T05:17:02.656Z,2.00
2018-12-21T05:19:30.252Z,1.80
2018-12-21T05:22:05.529Z,1.97
2018-12-21T05:24:33.243Z,1.50
2018-12-21T05:27:00.842Z,1.53
2018-12-21T05:29:28.403Z,1.37
2018-12-21T05:31:56.054Z,1.53
2018-12-21T05:34:24.046Z,1.53
2018-12-21T05:36:51.738Z,1.70
2018-12-21T05:39:19.332Z,2.00
2018-12-21T05:41:46.937Z,1.90
2018-12-21T05:44:14.542Z,1.80
2018-12-21T05:46:42.422Z,1.90
2018-12-21T05:49:10.735Z,2.23
2018-12-21T05:51:38.516Z,2.60
2018-12-21T05:54:06.074Z,2.23
2018-12-21T05:56:33.658Z,2.60
2018-12-21T05:59:05.467Z,2.50
2018-12-21T06:01:40.764Z,2.80
2018-12-21T06:04:16.027Z,3.70
2018-12-21T06:06:51.000Z,3.57
2018-12-21T06:09:26.059Z,3.60
2018-12-21T06:12:01.831Z,3.87
2018-12-21T06:14:36.482Z,4.10
2018-12-21T06:17:11.601Z,4.60
2018-12-21T06:19:46.546Z,5.10
2018-12-21T06:22:21.535Z,5.17
2018-12-21T06:24:52.332Z,5.50
2018-12-21T06:30:48.151Z,5.47
2018-12-21T06:33:16.002Z,5.93
2018-12-21T06:35:51.327Z,6.43
2018-12-21T06:38:26.402Z,6.03
2018-12-21T06:41:01.415Z,5.97
2018-12-21T06:43:36.383Z,5.57
2018-12-21T06:46:14.303Z,5.57
2018-12-21T06:52:08.540Z,5.80
2018-12-21T06:54:37.553Z,6.10
2018-12-21T06:57:05.355Z,5.97
2018-12-21T06:59:33.154Z,6.23
2018-12-21T07:02:01.002Z,6.23
2018-12-21T07:04:28.607Z,5.50
2018-12-21T07:06:56.292Z,6.40
2018-12-21T07:09:24.421Z,6.00
2018-12-21T07:11:52.308Z,5.33
2018-12-21T07:14:19.904Z,6.30
2018-12-21T07:16:47.509Z,6.10
2018-12-21T07:19:15.264Z,6.23
2018-12-21T07:21:43.614Z,6.43
2018-12-21T07:24:11.642Z,7.10
2018-12-21T07:26:39.525Z,6.00
2018-12-21T07:29:07.203Z,6.30
2018-12-21T07:31:42.893Z,6.03
2018-12-21T07:34:13.865Z,4.90
2018-12-21T07:36:41.695Z,4.83
2018-12-21T07:39:09.329Z,4.63
2018-12-21T07:41:37.090Z,4.57
2018-12-21T07:44:12.775Z,3.93
2018-12-21T07:46:40.474Z,3.40
2018-12-21T07:49:08.041Z,3.40
2018-12-21T07:51:49.238Z,2.80
2018-12-21T07:54:24.510Z,2.50
2018-12-21T07:56:59.352Z,2.70
2018-12-21T07:59:34.781Z,2.23
2018-12-21T08:02:19.172Z,2.13
2018-12-21T08:05:21.753Z,1.80
2018-12-21T08:07:56.885Z,1.50
2018-12-21T08:10:32.591Z,1.50
2018-12-21T08:13:08.343Z,1.27
2018-12-21T08:15:52.836Z,0.97
2018-12-21T08:18:28.275Z,1.20
2018-12-21T08:21:03.933Z,1.10
2018-12-21T08:23:31.854Z,1.20
2018-12-21T08:25:59.762Z,1.20
2018-12-21T08:28:35.161Z,1.00
2018-12-21T08:31:02.813Z,1.20
2018-12-21T08:33:38.025Z,1.23
2018-12-21T08:36:12.890Z,1.70
2018-12-21T08:38:40.607Z,2.23
2018-12-21T08:41:08.457Z,2.40
2018-12-21T08:43:36.202Z,3.27
2018-12-21T08:46:03.810Z,3.53
2018-12-21T08:48:39.247Z,3.80
2018-12-21T08:51:06.810Z,3.77
2018-12-21T08:53:42.055Z,3.17
2018-12-21T08:56:13.546Z,3.20
2018-12-21T08:58:48.431Z,3.20
2018-12-21T09:01:23.642Z,2.77
2018-12-21T09:04:32.245Z,2.67
2018-12-21T09:07:04.194Z,2.60
2018-12-21T09:09:39.795Z,2.67
2018-12-21T09:12:14.954Z,2.20
2018-12-21T09:14:49.833Z,1.97
2018-12-21T09:17:25.694Z,2.33
2018-12-21T09:19:56.405Z,2.00
2018-12-21T09:22:52.555Z,2.33
2018-12-21T09:25:20.210Z,2.07
2018-12-21T09:27:48.073Z,2.40
2018-12-21T09:30:15.812Z,2.20
2018-12-21T09:32:43.423Z,2.23
2018-12-21T09:35:11.050Z,2.60
2018-12-21T09:37:40.195Z,2.13
2018-12-21T09:40:12.329Z,2.50
2018-12-21T09:42:40.219Z,2.80
2018-12-21T09:45:07.819Z,2.27
2018-12-21T09:47:35.406Z,3.53
2018-12-21T09:50:03.252Z,3.30
2018-12-21T09:52:31.014Z,2.50
2018-12-21T09:54:58.581Z,3.37
2018-12-21T09:57:26.151Z,2.80
2018-12-21T09:59:53.790Z,2.70
2018-12-21T10:02:38.622Z,2.80
2018-12-21T10:05:08.534Z,2.90
2018-12-21T10:07:36.550Z,2.87
2018-12-21T10:10:04.487Z,3.87
2018-12-21T10:12:32.217Z,3.87
2018-12-21T10:15:03.600Z,4.07
2018-12-21T10:17:38.927Z,3.80
2018-12-21T10:20:13.527Z,3.50
2018-12-21T10:22:41.097Z,3.40
2018-12-21T10:25:16.351Z,3.83
2018-12-21T10:27:43.950Z,3.83
2018-12-21T10:30:11.906Z,3.20
2018-12-21T10:32:39.724Z,2.70
2018-12-21T10:35:07.302Z,3.40
2018-12-21T10:37:34.878Z,3.40
2018-12-21T10:40:02.890Z,2.70
2018-12-21T10:42:30.742Z,3.27
2018-12-21T10:44:58.512Z,3.40
2018-12-21T10:47:39.149Z,3.00
2018-12-21T10:50:20.026Z,3.80
2018-12-21T10:52:55.382Z,3.63
2018-12-21T10:55:22.964Z,3.97
2018-12-21T10:57:50.830Z,3.10
2018-12-21T11:00:47.090Z,4.17
2018-12-21T11:03:15.013Z,4.63
2018-12-21T11:05:42.963Z,3.67
2018-12-21T11:08:10.544Z,4.90
2018-12-21T11:10:38.149Z,3.27
2018-12-21T11:13:05.723Z,3.90
2018-12-21T11:15:33.662Z,3.30
2018-12-21T11:18:01.344Z,3.80
2018-12-21T11:20:28.901Z,4.07
2018-12-21T11:22:56.501Z,3.53
2018-12-21T11:25:24.413Z,3.50
2018-12-21T11:27:52.365Z,4.67
2018-12-21T11:30:20.057Z,4.23
2018-12-21T11:32:47.634Z,4.33
2018-12-21T11:35:15.166Z,4.63
2018-12-21T11:37:42.997Z,3.87
2018-12-21T11:40:10.790Z,4.07
2018-12-21T11:42:38.350Z,2.90
2018-12-21T11:45:08.051Z,4.30
2018-12-21T11:47:35.669Z,4.07
2018-12-21T11:50:03.851Z,3.27
2018-12-21T11:52:31.726Z,4.37
2018-12-21T11:54:59.579Z,4.07
2018-12-21T11:57:27.662Z,5.17
2018-12-21T11:59:55.234Z,3.53
2018-12-21T12:02:22.787Z,3.93
2018-12-21T12:04:50.674Z,4.80
2018-12-21T12:07:18.502Z,4.97
2018-12-21T12:09:46.031Z,4.37
2018-12-21T12:12:13.615Z,2.97
2018-12-21T12:14:41.310Z,2.73
2018-12-21T14:07:50.412Z,4.93
2018-12-21T14:10:26.055Z,4.77
2018-12-21T14:13:24.158Z,5.90
2018-12-21T14:15:52.022Z,4.87
2018-12-21T14:18:19.625Z,5.90
2018-12-21T14:20:55.059Z,5.20
2018-12-21T14:23:22.655Z,4.23
2018-12-21T14:25:50.254Z,4.90
2018-12-21T14:28:18.122Z,4.17
2018-12-21T14:30:49.507Z,5.17
2018-12-21T14:33:17.114Z,5.60
2018-12-21T14:35:44.860Z,6.17
2018-12-21T14:38:12.891Z,5.47
2018-12-21T14:40:40.804Z,6.53
2018-12-21T14:43:08.393Z,5.33
2018-12-21T14:45:35.952Z,4.90
2018-12-21T14:48:03.854Z,6.77
2018-12-21T14:50:31.750Z,6.13
2018-12-21T14:52:59.366Z,5.77
2018-12-21T14:55:37.554Z,6.37
2018-12-21T14:58:12.868Z,5.93
2018-12-21T15:00:40.458Z,5.83
2018-12-21T15:03:08.279Z,5.33
2018-12-21T15:05:35.955Z,6.63
2018-12-21T15:08:03.567Z,4.90
2018-12-21T15:10:31.089Z,4.90
2018-12-21T15:12:58.869Z,4.73
2018-12-21T15:15:26.738Z,6.03
2018-12-21T15:17:54.322Z,4.83
2018-12-21T15:20:22.123Z,4.93
2018-12-21T15:22:49.939Z,5.13
2018-12-21T15:25:17.763Z,4.67
2018-12-21T15:27:46.372Z,6.57
2018-12-21T15:30:24.560Z,5.33
2018-12-21T15:32:52.160Z,5.43
2018-12-21T15:35:19.925Z,5.70
2018-12-21T15:37:47.862Z,6.63
2018-12-21T15:40:15.442Z,6.23
2018-12-21T15:42:43.014Z,5.20
2018-12-21T15:45:10.699Z,5.53
2018-12-21T15:47:38.453Z,5.83
2018-12-21T15:55:08.482Z,5.60
2018-12-21T15:57:36.169Z,6.13
2018-12-21T16:00:04.965Z,6.63
2018-12-21T16:02:32.910Z,6.27
2018-12-21T16:05:00.553Z,5.97
2018-12-21T16:07:28.140Z,6.43
2018-12-21T16:09:56.123Z,5.63
2018-12-21T16:12:24.066Z,7.67
2018-12-21T16:14:51.690Z,5.00
2018-12-21T16:17:19.258Z,5.33
2018-12-21T16:19:46.974Z,7.67
2018-12-21T16:22:14.801Z,6.23
2018-12-21T16:24:42.393Z,4.90
2018-12-21T16:27:09.951Z,6.17
2018-12-21T16:29:37.778Z,6.23
2018-12-21T16:32:05.513Z,4.70
2018-12-21T16:34:33.102Z,6.17
2018-12-21T16:37:00.748Z,5.77
2018-12-21T16:39:28.573Z,4.83
2018-12-21T16:41:56.381Z,6.43
2018-12-21T16:44:24.006Z,5.80
2018-12-21T16:46:51.590Z,5.80
2018-12-21T16:49:19.578Z,7.30
2018-12-21T16:51:47.485Z,5.73
2018-12-21T16:54:15.072Z,5.50
2018-12-21T16:56:42.699Z,4.97
2018-12-21T16:59:10.532Z,5.70
2018-12-21T17:01:38.398Z,5.50
2018-12-21T17:04:05.941Z,5.77
2018-12-21T17:06:33.543Z,5.23
2018-12-21T17:09:01.599Z,6.43
2018-12-21T17:11:29.395Z,5.53
2018-12-21T17:13:56.982Z,7.10
2018-12-21T17:16:24.613Z,6.50
2018-12-21T17:18:56.223Z,6.33
2018-12-21T17:21:23.927Z,4.50
2018-12-21T17:23:51.494Z,5.67
2018-12-21T17:26:21.364Z,6.03
2018-12-21T17:28:49.255Z,4.77
2018-12-21T17:31:17.274Z,4.77
2018-12-21T17:33:45.224Z,5.07
2018-12-21T17:36:12.842Z,5.80
2018-12-21T17:38:40.562Z,4.70
2018-12-21T17:41:08.536Z,5.87
2018-12-21T17:43:36.546Z,5.07
2018-12-21T17:46:04.121Z,5.57
2018-12-21T17:48:31.727Z,5.67
2018-12-21T17:50:59.500Z,4.83
2018-12-21T17:53:27.167Z,4.00
2018-12-21T17:55:54.750Z,2.20
2018-12-21T17:58:22.622Z,2.80
2018-12-21T18:00:50.438Z,2.17
2018-12-21T18:03:27.870Z,2.70
2018-12-21T18:05:55.714Z,2.30
2018-12-21T18:08:23.882Z,2.40
2018-12-21T18:10:51.894Z,2.37
2018-12-21T18:13:19.514Z,2.57
2018-12-21T18:15:47.128Z,2.50
2018-12-21T18:18:15.121Z,2.57
2018-12-21T18:20:43.157Z,2.90
2018-12-21T18:23:12.566Z,2.87
2018-12-21T18:25:40.129Z,3.37
2018-12-21T18:28:11.161Z,2.97
2018-12-21T18:30:45.862Z,3.30
2018-12-21T18:33:15.178Z,3.03
2018-12-21T18:35:42.947Z,2.53
2018-12-21T18:38:14.013Z,2.07
2018-12-21T18:40:45.011Z,2.70
2018-12-21T18:43:12.706Z,2.97
2018-12-21T18:45:40.461Z,2.63
2018-12-21T18:48:08.463Z,2.60
2018-12-21T18:50:36.124Z,2.80
2018-12-21T18:53:03.715Z,2.70
2018-12-21T18:55:31.498Z,3.03
2018-12-21T18:57:59.304Z,2.27
2018-12-21T19:00:27.012Z,2.77
2018-12-21T19:02:54.611Z,3.27
2018-12-21T19:05:22.679Z,2.70
2018-12-21T19:07:50.548Z,2.63
2018-12-21T19:10:18.166Z,2.73
2018-12-21T19:12:45.730Z,2.33
2018-12-21T19:15:13.545Z,3.40
2018-12-21T19:17:41.434Z,2.37
2018-12-21T19:20:12.022Z,2.33
2018-12-21T19:22:40.158Z,2.40
2018-12-21T19:25:09.730Z,2.77
2018-12-21T19:27:37.338Z,2.23
2018-12-21T19:30:07.175Z,3.07
2018-12-21T19:32:34.777Z,2.07
2018-12-21T19:35:02.730Z,2.07
2018-12-21T19:37:30.986Z,2.60
2018-12-21T19:39:59.597Z,2.70
2018-12-21T19:42:27.311Z,2.67
2018-12-21T19:44:55.149Z,2.70
2018-12-21T19:47:22.830Z,2.87
2018-12-21T19:49:50.912Z,2.23
2018-12-21T19:52:18.802Z,2.53
2018-12-21T19:54:50.517Z,2.70
2018-12-21T19:57:18.403Z,2.30
2018-12-21T19:59:45.954Z,2.93
2018-12-21T20:02:13.633Z,2.10
2018-12-21T20:04:41.715Z,2.30
2018-12-21T20:07:09.657Z,3.47
2018-12-21T20:09:37.293Z,1.83
2018-12-21T20:12:05.918Z,1.97
2018-12-21T20:14:33.711Z,2.13
2018-12-21T20:17:01.577Z,2.27
2018-12-21T20:19:29.197Z,2.77
2018-12-21T20:21:56.795Z,2.50
2018-12-21T20:24:27.921Z,2.30
2018-12-21T20:26:59.321Z,2.20
2018-12-21T20:29:27.370Z,2.07
2018-12-21T20:31:54.960Z,2.23
2018-12-21T20:34:22.565Z,2.43
2018-12-21T20:36:50.762Z,2.70
2018-12-21T20:39:21.406Z,3.07
2018-12-21T20:41:49.382Z,2.73
2018-12-21T20:44:17.326Z,3.13
2018-12-21T20:46:44.951Z,3.43
2018-12-21T20:49:12.615Z,3.37
2018-12-21T20:51:40.293Z,3.90
2018-12-21T20:54:08.149Z,2.00
2018-12-21T20:56:35.802Z,2.20
2018-12-21T20:59:08.026Z,1.97
2018-12-21T21:01:35.949Z,2.20
2018-12-21T21:04:03.517Z,2.20
2018-12-21T21:06:31.142Z,2.80
2018-12-21T21:08:58.809Z,1.77
2018-12-21T21:11:26.673Z,1.77
2018-12-21T21:13:54.437Z,1.90
2018-12-21T21:16:22.005Z,1.67
2018-12-21T21:18:49.789Z,2.47
2018-12-21T21:21:17.747Z,1.53
2018-12-21T21:23:45.314Z,1.97
2018-12-21T21:26:12.963Z,2.00
2018-12-21T21:28:40.910Z,2.17
2018-12-21T21:31:16.471Z,2.80
2018-12-21T21:33:44.402Z,2.10
2018-12-21T21:36:12.360Z,2.57
2018-12-21T21:38:39.917Z,2.70
2018-12-21T21:41:07.499Z,2.90
2018-12-21T21:43:35.451Z,1.83
2018-12-21T21:51:03.327Z,3.70
2018-12-21T21:53:31.238Z,3.40
2018-12-21T21:55:58.794Z,4.63
2018-12-21T21:58:26.427Z,5.03
2018-12-21T22:00:54.451Z,5.03
2018-12-21T22:03:22.349Z,4.57
2018-12-21T22:05:50.361Z,5.70
2018-12-21T22:08:17.985Z,5.17
2018-12-21T22:10:45.523Z,7.60
2018-12-21T22:13:13.415Z,5.30
2018-12-21T22:15:41.306Z,5.07
2018-12-21T22:18:09.010Z,5.70
2018-12-21T22:20:36.557Z,5.60
2018-12-21T22:23:04.618Z,8.83
2018-12-21T22:25:32.154Z,8.30
2018-12-21T22:27:59.714Z,6.60
2018-12-21T22:30:27.415Z,8.60
2018-12-21T22:32:55.307Z,8.90
2018-12-21T22:35:22.910Z,7.33
2018-12-21T22:37:50.514Z,6.93
2018-12-21T22:40:18.482Z,6.77
2018-12-21T22:42:46.340Z,6.10
2018-12-21T22:45:13.876Z,6.93
2018-12-21T22:47:41.467Z,6.87
2018-12-21T22:50:09.512Z,8.57
2018-12-21T22:52:37.549Z,7.77
2018-12-21T22:55:06.616Z,7.23
2018-12-21T22:57:34.262Z,6.77
2018-12-21T23:00:02.299Z,9.03
2018-12-21T23:02:30.155Z,7.70
2018-12-21T23:04:57.849Z,7.17
2018-12-21T23:07:25.551Z,7.73
2018-12-21T23:09:53.234Z,9.03
2018-12-21T23:12:21.090Z,7.77
2018-12-21T23:14:48.650Z,7.37
2018-12-21T23:17:23.830Z,6.27
2018-12-21T23:19:51.527Z,6.83
2018-12-21T23:22:23.220Z,7.00
2018-12-21T23:24:50.846Z,7.43
2018-12-21T23:27:18.434Z,7.13
2018-12-21T23:29:46.379Z,6.90
2018-12-21T23:32:14.274Z,5.80
2018-12-21T23:34:41.913Z,7.40
2018-12-21T23:37:17.438Z,6.83
2018-12-21T23:39:45.018Z,6.43
2018-12-21T23:42:12.746Z,6.67
2018-12-21T23:44:40.650Z,5.80
2018-12-21T23:47:08.251Z,7.60
2018-12-21T23:49:35.829Z,7.87
2018-12-21T23:52:03.567Z,5.93
2018-12-21T23:54:31.446Z,5.70
2018-12-21T23:56:59.002Z,7.30
2018-12-21T23:59:26.633Z,5.83
